Time;durP1;ratioP1;P1;durP2;ratioP2;P2;SDS_P1;SDS_P2;PMS_P1;PMS_P2;Temp;Humidity;BMP_temperature;BMP_pressure;BME280_temperature;BME280_humidity;BME280_pressure;Samples;Min_cycle;Max_cycle;Signal;HPM_P1;HPM_P2
2022/07/08 00:01:58;;;;;;;5.72;3.10;;;;;;;;;;5096182;28;20578;-81
2022/07/08 00:04:24;;;;;;;7.07;3.33;;;;;;;;;;5096009;28;20020;-72
2022/07/08 00:06:50;;;;;;;4.63;3.42;;;;;;;;;;5095860;28;20529;-72
2022/07/08 00:09:17;;;;;;;9.10;3.45;;;;;;;;;;5095599;28;20020;-73
2022/07/08 00:11:43;;;;;;;7.68;2.92;;;;;;;;;;5095748;28;20036;-74
2022/07/08 00:14:09;;;;;;;6.65;3.22;;;;;;;;;;5095558;28;20044;-73
2022/07/08 00:16:40;;;;;;;5.95;3.45;;;;;;;;;;5095507;28;20035;-73
2022/07/08 00:19:06;;;;;;;6.00;2.67;;;;;;;;;;5095494;28;20669;-72
2022/07/08 00:21:32;;;;;;;4.95;2.88;;;;;;;;;;5095443;28;20031;-72
2022/07/08 00:23:58;;;;;;;5.82;3.42;;;;;;;;;;5095380;28;20023;-73
2022/07/08 00:26:24;;;;;;;5.40;3.20;;;;;;;;;;5095422;28;20016;-73
2022/07/08 00:28:50;;;;;;;5.35;3.17;;;;;;;;;;5095293;28;20028;-72
2022/07/08 00:31:16;;;;;;;5.05;3.25;;;;;;;;;;5095072;28;20474;-74
2022/07/08 00:33:42;;;;;;;8.55;3.10;;;;;;;;;;5076678;28;20379;-72
2022/07/08 00:36:08;;;;;;;5.35;3.13;;;;;;;;;;5076933;28;20043;-74
2022/07/08 00:38:35;;;;;;;6.65;3.55;;;;;;;;;;5077122;28;20477;-72
2022/07/08 00:41:01;;;;;;;5.47;3.58;;;;;;;;;;5076669;28;20405;-80
2022/07/08 00:43:47;;;;;;;8.80;3.60;;;;;;;;;;5076973;28;20457;-73
2022/07/08 00:46:14;;;;;;;5.40;3.53;;;;;;;;;;5076837;28;20029;-73
2022/07/08 00:48:40;;;;;;;7.95;4.95;;;;;;;;;;5076440;28;20036;-73
2022/07/08 00:51:07;;;;;;;7.40;3.70;;;;;;;;;;5094876;28;20470;-73
2022/07/08 00:53:34;;;;;;;5.00;3.45;;;;;;;;;;5076486;28;20088;-72
2022/07/08 00:56:00;;;;;;;5.30;3.45;;;;;;;;;;5094696;28;20474;-73
2022/07/08 00:58:26;;;;;;;4.38;3.42;;;;;;;;;;5076854;28;20032;-72
2022/07/08 01:00:53;;;;;;;6.65;3.13;;;;;;;;;;5094848;28;20016;-72
2022/07/08 01:03:19;;;;;;;5.32;3.60;;;;;;;;;;5094647;28;20024;-72
2022/07/08 01:05:45;;;;;;;5.25;3.20;;;;;;;;;;5095043;28;20073;-83
2022/07/08 01:08:12;;;;;;;5.07;3.35;;;;;;;;;;5094784;28;20476;-83
2022/07/08 01:10:38;;;;;;;7.35;3.17;;;;;;;;;;5094879;28;20081;-81
2022/07/08 01:13:04;;;;;;;7.95;3.30;;;;;;;;;;5094443;28;20058;-80
2022/07/08 01:15:30;;;;;;;5.53;3.45;;;;;;;;;;5094524;28;20374;-80
2022/07/08 01:17:56;;;;;;;4.68;2.72;;;;;;;;;;5094300;28;20023;-80
2022/07/08 01:20:23;;;;;;;5.45;2.88;;;;;;;;;;5076290;28;20062;-80
2022/07/08 01:22:49;;;;;;;4.60;3.10;;;;;;;;;;5094442;28;20020;-80
2022/07/08 01:25:15;;;;;;;5.22;2.97;;;;;;;;;;5094306;28;20024;-81
2022/07/08 01:27:41;;;;;;;6.68;3.35;;;;;;;;;;5094213;28;20016;-80
2022/07/08 01:30:08;;;;;;;4.07;2.75;;;;;;;;;;5094259;28;20059;-79
2022/07/08 01:32:35;;;;;;;9.30;3.20;;;;;;;;;;5093967;28;20036;-80
2022/07/08 01:35:01;;;;;;;7.03;3.00;;;;;;;;;;5094273;28;20342;-80
2022/07/08 01:37:27;;;;;;;4.68;3.05;;;;;;;;;;5094161;28;20058;-80
2022/07/08 01:39:53;;;;;;;5.03;2.88;;;;;;;;;;5094052;28;20069;-80
2022/07/08 01:42:19;;;;;;;5.55;2.88;;;;;;;;;;5094376;28;20131;-80
2022/07/08 01:44:46;;;;;;;4.60;2.70;;;;;;;;;;5093289;28;20024;-80
2022/07/08 01:47:12;;;;;;;4.07;2.75;;;;;;;;;;5094087;28;20023;-83
2022/07/08 01:49:38;;;;;;;5.47;3.33;;;;;;;;;;5094281;28;20103;-83
2022/07/08 01:52:05;;;;;;;10.30;3.03;;;;;;;;;;5093907;28;20024;-74
2022/07/08 01:54:31;;;;;;;4.95;2.70;;;;;;;;;;5093775;28;20024;-74
2022/07/08 01:57:15;;;;;;;4.43;2.88;;;;;;;;;;5093811;28;20023;-74
2022/07/08 01:59:44;;;;;;;6.75;3.08;;;;;;;;;;5093732;28;20074;-76
2022/07/08 02:02:11;;;;;;;6.18;2.50;;;;;;;;;;5093601;28;20103;-73
2022/07/08 02:04:37;;;;;;;9.48;2.53;;;;;;;;;;5093842;28;20434;-73
2022/07/08 02:07:04;;;;;;;6.32;2.80;;;;;;;;;;5075116;28;20024;-75
2022/07/08 02:09:30;;;;;;;3.10;2.38;;;;;;;;;;5093826;28;20174;-75
2022/07/08 02:14:41;;;;;;;3.13;2.65;;;;;;;;;;5093723;28;20117;-73
2022/07/08 02:17:08;;;;;;;4.00;2.50;;;;;;;;;;5093596;28;20027;-77
2022/07/08 02:19:35;;;;;;;10.77;2.88;;;;;;;;;;5093520;28;20016;-72
2022/07/08 02:22:01;;;;;;;6.55;2.78;;;;;;;;;;5093457;28;20024;-73
2022/07/08 02:24:27;;;;;;;3.85;2.55;;;;;;;;;;5093305;28;20024;-73
2022/07/08 02:26:53;;;;;;;3.35;2.53;;;;;;;;;;5075298;28;20024;-73
2022/07/08 02:29:19;;;;;;;3.50;2.50;;;;;;;;;;5093678;28;20028;-77
2022/07/08 02:31:46;;;;;;;4.25;2.75;;;;;;;;;;5093034;28;20039;-74
2022/07/08 02:34:12;;;;;;;4.95;2.45;;;;;;;;;;5093144;28;20020;-73
2022/07/08 02:36:38;;;;;;;3.05;2.40;;;;;;;;;;5093186;28;20020;-74
2022/07/08 02:39:05;;;;;;;2.70;2.47;;;;;;;;;;5093068;28;20098;-74
2022/07/08 02:41:31;;;;;;;3.78;2.58;;;;;;;;;;5093211;28;20103;-75
2022/07/08 02:43:58;;;;;;;5.18;2.72;;;;;;;;;;5093147;28;20039;-80
2022/07/08 02:46:24;;;;;;;3.25;2.50;;;;;;;;;;5093145;28;20020;-74
2022/07/08 02:48:50;;;;;;;12.55;2.75;;;;;;;;;;5093479;28;20024;-81
2022/07/08 02:51:16;;;;;;;4.57;2.60;;;;;;;;;;5093040;28;20020;-80
2022/07/08 02:53:42;;;;;;;4.25;2.85;;;;;;;;;;5093119;28;20066;-82
2022/07/08 02:56:08;;;;;;;5.93;3.17;;;;;;;;;;5096684;28;20032;-79
2022/07/08 02:58:35;;;;;;;4.45;2.80;;;;;;;;;;5097347;28;20136;-80
2022/07/08 03:01:01;;;;;;;7.82;2.72;;;;;;;;;;5097149;28;20020;-79
2022/07/08 03:03:27;;;;;;;4.78;2.70;;;;;;;;;;5097199;28;20028;-77
2022/07/08 03:05:53;;;;;;;6.18;3.05;;;;;;;;;;5096973;28;20066;-77
2022/07/08 03:08:19;;;;;;;5.70;2.65;;;;;;;;;;5097245;28;20022;-80
2022/07/08 03:10:45;;;;;;;4.13;2.70;;;;;;;;;;5097060;28;20069;-82
2022/07/08 03:13:11;;;;;;;5.22;2.90;;;;;;;;;;5096760;28;20172;-73
2022/07/08 03:15:37;;;;;;;5.93;2.85;;;;;;;;;;5096955;28;20106;-72
2022/07/08 03:18:04;;;;;;;3.53;3.00;;;;;;;;;;5096992;28;20028;-83
2022/07/08 03:20:30;;;;;;;4.55;2.83;;;;;;;;;;5097346;28;20485;-83
2022/07/08 03:22:56;;;;;;;3.05;2.72;;;;;;;;;;5096999;28;20024;-81
2022/07/08 03:25:22;;;;;;;3.47;2.85;;;;;;;;;;5097093;28;20168;-78
2022/07/08 03:27:48;;;;;;;3.90;2.97;;;;;;;;;;5078371;28;20032;-83
2022/07/08 03:30:14;;;;;;;6.03;3.47;;;;;;;;;;5096674;28;20020;-81
2022/07/08 03:32:41;;;;;;;3.20;2.90;;;;;;;;;;5096991;28;20028;-82
2022/07/08 03:35:07;;;;;;;3.40;2.95;;;;;;;;;;5096767;28;20358;-82
2022/07/08 03:37:33;;;;;;;7.47;3.33;;;;;;;;;;5096493;28;20461;-83
2022/07/08 03:41:19;;;;;;;7.63;3.95;;;;;;;;;;5078103;28;20012;-80
2022/07/08 03:42:48;;;;;;;7.47;3.58;;;;;;;;;;5096386;28;20134;-83
2022/07/08 03:45:14;;;;;;;8.13;3.17;;;;;;;;;;5096450;28;20034;-82
2022/07/08 03:47:40;;;;;;;4.10;3.20;;;;;;;;;;5096474;28;20240;-81
2022/07/08 03:50:06;;;;;;;6.82;3.15;;;;;;;;;;5096264;28;20028;-80
2022/07/08 03:52:33;;;;;;;6.63;3.20;;;;;;;;;;5096196;28;20455;-82
2022/07/08 03:54:59;;;;;;;5.53;3.13;;;;;;;;;;5096287;28;20108;-80
2022/07/08 03:57:25;;;;;;;3.22;2.92;;;;;;;;;;5096031;28;20023;-80
2022/07/08 03:59:51;;;;;;;3.78;3.40;;;;;;;;;;5095963;28;20425;-80
2022/07/08 04:02:17;;;;;;;5.63;3.20;;;;;;;;;;5095959;28;20020;-80
2022/07/08 04:04:43;;;;;;;4.57;3.03;;;;;;;;;;5096078;28;20394;-80
2022/07/08 04:07:09;;;;;;;7.70;3.75;;;;;;;;;;5095118;28;20021;-74
2022/07/08 04:09:35;;;;;;;7.20;3.63;;;;;;;;;;5095678;28;20077;-80
2022/07/08 04:12:01;;;;;;;5.60;3.20;;;;;;;;;;5095968;28;20094;-79
2022/07/08 04:14:27;;;;;;;5.05;3.70;;;;;;;;;;5095555;28;20056;-75
2022/07/08 04:16:53;;;;;;;4.95;3.20;;;;;;;;;;5095928;28;20028;-77
2022/07/08 04:19:19;;;;;;;4.78;3.40;;;;;;;;;;5077599;28;20024;-79
2022/07/08 04:21:45;;;;;;;5.00;3.20;;;;;;;;;;5095649;28;20029;-74
2022/07/08 04:24:11;;;;;;;5.03;3.67;;;;;;;;;;5095521;28;20477;-74
2022/07/08 04:26:38;;;;;;;4.18;3.63;;;;;;;;;;5095611;28;20024;-74
2022/07/08 04:29:04;;;;;;;5.47;4.07;;;;;;;;;;5095350;28;20115;-74
2022/07/08 04:31:30;;;;;;;4.72;3.80;;;;;;;;;;5095339;28;20462;-74
2022/07/08 04:33:56;;;;;;;5.57;4.07;;;;;;;;;;5095354;28;20081;-74
2022/07/08 04:36:22;;;;;;;4.20;3.80;;;;;;;;;;5095325;28;20022;-74
2022/07/08 04:38:49;;;;;;;10.18;3.60;;;;;;;;;;5095229;28;20501;-78
2022/07/08 04:41:15;;;;;;;6.82;4.20;;;;;;;;;;5095082;28;20058;-76
2022/07/08 04:43:41;;;;;;;5.00;4.00;;;;;;;;;;5095010;28;20117;-75
2022/07/08 04:46:07;;;;;;;6.45;4.28;;;;;;;;;;5095104;28;20028;-79
2022/07/08 04:48:33;;;;;;;10.25;4.43;;;;;;;;;;5095005;28;20481;-74
2022/07/08 04:50:59;;;;;;;5.40;4.15;;;;;;;;;;5094984;28;20381;-73
2022/07/08 04:53:25;;;;;;;8.48;5.45;;;;;;;;;;5094857;28;20039;-77
2022/07/08 04:55:51;;;;;;;7.07;5.50;;;;;;;;;;5094783;28;20028;-76
2022/07/08 04:58:17;;;;;;;11.77;6.20;;;;;;;;;;5094933;28;20110;-77
2022/07/08 05:00:43;;;;;;;7.40;5.60;;;;;;;;;;5094817;28;20020;-76
2022/07/08 05:03:09;;;;;;;8.43;5.40;;;;;;;;;;5094833;28;20016;-74
2022/07/08 05:05:35;;;;;;;6.10;5.45;;;;;;;;;;5094837;28;20409;-80
2022/07/08 05:08:02;;;;;;;7.22;6.30;;;;;;;;;;5094855;28;20018;-80
2022/07/08 05:10:28;;;;;;;7.82;5.88;;;;;;;;;;5094680;28;20016;-83
2022/07/08 05:12:55;;;;;;;6.20;5.60;;;;;;;;;;5094752;28;20127;-80
2022/07/08 05:15:21;;;;;;;6.18;5.40;;;;;;;;;;5094437;28;20024;-79
2022/07/08 05:17:48;;;;;;;8.75;5.32;;;;;;;;;;5093888;28;20027;-80
2022/07/08 05:20:14;;;;;;;6.32;5.65;;;;;;;;;;5094308;28;20027;-79
2022/07/08 05:22:41;;;;;;;7.32;5.82;;;;;;;;;;5094343;28;20070;-78
2022/07/08 05:25:08;;;;;;;6.82;5.13;;;;;;;;;;5076060;28;20103;-80
2022/07/08 05:27:35;;;;;;;7.30;5.38;;;;;;;;;;5094120;28;20035;-80
2022/07/08 05:30:01;;;;;;;7.50;5.35;;;;;;;;;;5094541;28;20110;-79
2022/07/08 05:32:27;;;;;;;7.40;5.72;;;;;;;;;;5093982;28;20540;-79
2022/07/08 05:34:53;;;;;;;6.45;5.47;;;;;;;;;;5094236;28;20105;-74
2022/07/08 05:37:19;;;;;;;6.25;5.60;;;;;;;;;;5094162;28;20035;-76
2022/07/08 05:39:46;;;;;;;6.70;5.53;;;;;;;;;;5094025;28;20508;-80
2022/07/08 05:42:12;;;;;;;6.75;5.68;;;;;;;;;;5094285;28;20134;-79
2022/07/08 05:44:39;;;;;;;7.03;5.43;;;;;;;;;;5094131;28;20073;-79
2022/07/08 05:47:07;;;;;;;8.82;5.57;;;;;;;;;;5093990;28;20024;-80
2022/07/08 05:49:34;;;;;;;9.52;5.57;;;;;;;;;;5093928;28;20023;-80
2022/07/08 05:52:00;;;;;;;5.55;4.88;;;;;;;;;;5094041;28;20070;-80
2022/07/08 05:54:27;;;;;;;5.47;4.97;;;;;;;;;;5093980;28;20024;-79
2022/07/08 05:56:53;;;;;;;6.43;5.53;;;;;;;;;;5093871;28;20020;-79
2022/07/08 05:59:19;;;;;;;8.82;5.82;;;;;;;;;;5093689;28;20077;-80
2022/07/08 06:01:45;;;;;;;5.95;4.70;;;;;;;;;;5094031;28;20024;-78
2022/07/08 06:04:12;;;;;;;7.55;4.80;;;;;;;;;;5093761;28;20020;-79
2022/07/08 06:06:38;;;;;;;4.85;4.35;;;;;;;;;;5093748;28;20024;-80
2022/07/08 06:09:04;;;;;;;4.82;4.38;;;;;;;;;;5093845;28;20096;-81
2022/07/08 06:11:30;;;;;;;8.75;5.00;;;;;;;;;;5093508;28;20027;-83
2022/07/08 06:13:56;;;;;;;10.55;5.10;;;;;;;;;;5093450;28;20059;-80
2022/07/08 06:16:22;;;;;;;7.72;4.68;;;;;;;;;;5093747;28;20020;-83
2022/07/08 06:18:49;;;;;;;6.82;4.85;;;;;;;;;;5093748;28;20035;-84
2022/07/08 06:21:15;;;;;;;5.25;4.65;;;;;;;;;;5093569;28;20359;-83
2022/07/08 06:23:41;;;;;;;7.88;5.10;;;;;;;;;;5075222;28;20036;-82
2022/07/08 06:26:07;;;;;;;4.72;4.30;;;;;;;;;;5093498;28;20028;-84
2022/07/08 06:28:33;;;;;;;5.70;5.10;;;;;;;;;;5093837;28;20095;-83
2022/07/08 06:30:59;;;;;;;5.47;4.20;;;;;;;;;;5093143;28;20046;-83
2022/07/08 06:33:26;;;;;;;5.93;5.18;;;;;;;;;;5093125;28;20032;-83
2022/07/08 06:35:52;;;;;;;7.95;4.93;;;;;;;;;;5093546;28;20056;-82
2022/07/08 06:38:18;;;;;;;5.15;4.47;;;;;;;;;;5093522;28;20020;-82
2022/07/08 06:40:44;;;;;;;5.40;4.25;;;;;;;;;;5093305;28;20020;-83
2022/07/08 06:43:10;;;;;;;4.70;4.30;;;;;;;;;;5093540;28;20437;-83
2022/07/08 06:45:36;;;;;;;6.45;5.25;;;;;;;;;;5093321;28;20028;-83
2022/07/08 06:48:03;;;;;;;6.28;4.45;;;;;;;;;;5093004;28;20073;-80
2022/07/08 06:50:29;;;;;;;4.65;4.22;;;;;;;;;;5093134;28;20035;-81
2022/07/08 06:52:56;;;;;;;7.80;4.70;;;;;;;;;;5093022;28;20036;-81
2022/07/08 06:55:22;;;;;;;5.13;4.32;;;;;;;;;;5093286;28;20016;-83
2022/07/08 06:57:49;;;;;;;5.00;4.20;;;;;;;;;;5093557;28;20050;-83
2022/07/08 07:00:15;;;;;;;10.63;8.43;;;;;;;;;;5093219;28;20021;-82
2022/07/08 07:02:41;;;;;;;6.97;4.57;;;;;;;;;;5093344;28;20035;-83
2022/07/08 07:05:08;;;;;;;7.93;4.65;;;;;;;;;;5093010;28;20052;-76
2022/07/08 07:07:34;;;;;;;11.50;4.78;;;;;;;;;;5092858;28;20367;-74
2022/07/08 07:10:00;;;;;;;5.20;4.47;;;;;;;;;;5092768;28;20372;-75
2022/07/08 07:12:27;;;;;;;4.47;4.07;;;;;;;;;;5092698;28;20052;-74
2022/07/08 07:14:53;;;;;;;6.32;4.43;;;;;;;;;;5074530;28;20119;-79
2022/07/08 07:17:20;;;;;;;6.40;4.32;;;;;;;;;;5092878;28;20024;-81
2022/07/08 07:19:46;;;;;;;5.93;4.35;;;;;;;;;;5092682;28;20457;-80
2022/07/08 07:22:13;;;;;;;5.20;3.83;;;;;;;;;;5092761;28;20023;-74
2022/07/08 07:24:39;;;;;;;5.45;4.30;;;;;;;;;;5074911;28;20115;-75
2022/07/08 07:27:05;;;;;;;5.57;4.40;;;;;;;;;;5074669;28;20355;-81
2022/07/08 07:29:31;;;;;;;7.00;4.82;;;;;;;;;;5092820;28;20048;-80
2022/07/08 07:31:57;;;;;;;7.57;4.63;;;;;;;;;;5074380;28;20031;-79
2022/07/08 07:34:23;;;;;;;7.30;4.40;;;;;;;;;;5092728;28;20046;-74
2022/07/08 07:36:49;;;;;;;6.53;4.13;;;;;;;;;;5092718;28;20099;-74
2022/07/08 07:39:15;;;;;;;5.35;4.22;;;;;;;;;;5092783;28;20024;-76
2022/07/08 07:41:42;;;;;;;7.85;6.07;;;;;;;;;;5093561;28;20030;-77
2022/07/08 07:44:08;;;;;;;6.03;3.35;;;;;;;;;;5096237;28;20397;-75
2022/07/08 07:46:34;;;;;;;6.32;3.78;;;;;;;;;;5096245;28;20059;-75
2022/07/08 07:49:00;;;;;;;11.75;6.22;;;;;;;;;;5096243;28;20020;-80
2022/07/08 07:51:26;;;;;;;5.05;3.67;;;;;;;;;;5096118;28;20052;-80
2022/07/08 07:53:53;;;;;;;8.20;4.30;;;;;;;;;;5096041;28;20110;-80
2022/07/08 07:56:19;;;;;;;5.10;3.63;;;;;;;;;;5095975;28;20024;-78
2022/07/08 07:58:45;;;;;;;9.07;4.80;;;;;;;;;;5077529;28;20074;-80
2022/07/08 08:01:12;;;;;;;4.60;4.05;;;;;;;;;;5095868;28;20065;-80
2022/07/08 08:03:38;;;;;;;5.45;3.70;;;;;;;;;;5095822;28;20114;-81
2022/07/08 08:06:04;;;;;;;5.18;4.07;;;;;;;;;;5095832;28;20027;-79
2022/07/08 08:08:33;;;;;;;9.80;5.55;;;;;;;;;;5095763;28;20036;-81
2022/07/08 08:11:00;;;;;;;4.97;3.90;;;;;;;;;;5095611;28;20027;-77
2022/07/08 08:13:26;;;;;;;7.00;5.00;;;;;;;;;;5095296;28;20131;-79
2022/07/08 08:15:52;;;;;;;7.00;3.50;;;;;;;;;;5095636;28;20051;-75
2022/07/08 08:18:19;;;;;;;5.07;3.60;;;;;;;;;;5095765;28;20027;-79
2022/07/08 08:20:45;;;;;;;6.40;4.55;;;;;;;;;;5095623;28;20453;-80
2022/07/08 08:23:12;;;;;;;4.55;3.55;;;;;;;;;;5095834;28;20032;-79
2022/07/08 08:25:38;;;;;;;8.02;3.65;;;;;;;;;;5095574;28;20381;-80
2022/07/08 08:28:04;;;;;;;5.40;3.95;;;;;;;;;;5095486;28;20157;-79
2022/07/08 08:30:31;;;;;;;4.25;3.85;;;;;;;;;;5095407;28;20084;-80
2022/07/08 08:32:57;;;;;;;4.63;3.90;;;;;;;;;;5095305;28;20481;-80
2022/07/08 08:35:24;;;;;;;7.57;5.47;;;;;;;;;;5095097;28;20393;-80
2022/07/08 08:37:50;;;;;;;6.38;4.13;;;;;;;;;;5095250;28;20024;-80
2022/07/08 08:40:16;;;;;;;3.80;3.40;;;;;;;;;;5094799;28;20445;-79
2022/07/08 08:42:43;;;;;;;4.53;3.60;;;;;;;;;;5095344;28;20059;-79
2022/07/08 08:45:09;;;;;;;7.05;4.38;;;;;;;;;;5095212;28;20024;-80
2022/07/08 08:47:36;;;;;;;6.88;3.58;;;;;;;;;;5094958;28;20024;-80
2022/07/08 08:52:51;;;;;;;5.90;3.72;;;;;;;;;;5094827;28;20047;-80
2022/07/08 08:55:26;;;;;;;5.63;5.00;;;;;;;;;;5094765;28;20024;-80
2022/07/08 08:57:55;;;;;;;4.65;3.30;;;;;;;;;;5094737;28;20078;-80
2022/07/08 09:00:22;;;;;;;5.50;3.55;;;;;;;;;;5094694;28;20028;-79
2022/07/08 09:02:48;;;;;;;4.03;3.22;;;;;;;;;;5094870;28;20016;-80
2022/07/08 09:05:15;;;;;;;5.75;3.83;;;;;;;;;;5094882;28;20024;-80
2022/07/08 09:07:41;;;;;;;4.57;3.15;;;;;;;;;;5094849;28;20016;-79
2022/07/08 09:10:08;;;;;;;5.82;3.60;;;;;;;;;;5094796;28;20113;-79
2022/07/08 09:12:34;;;;;;;6.32;3.92;;;;;;;;;;5094599;28;20381;-80
2022/07/08 09:15:01;;;;;;;6.07;3.50;;;;;;;;;;5094684;28;20024;-78
2022/07/08 09:17:27;;;;;;;5.75;3.72;;;;;;;;;;5094644;28;20031;-81
2022/07/08 09:19:53;;;;;;;4.55;3.30;;;;;;;;;;5094539;28;20099;-80
2022/07/08 09:22:23;;;;;;;7.47;4.60;;;;;;;;;;5094344;28;20030;-80
2022/07/08 09:24:49;;;;;;;6.82;3.72;;;;;;;;;;5094225;28;20028;-79
2022/07/08 09:27:16;;;;;;;3.90;3.20;;;;;;;;;;5094201;28;20032;-81
2022/07/08 09:29:57;;;;;;;5.80;3.30;;;;;;;;;;5094199;28;20423;-80
2022/07/08 09:32:23;;;;;;;;;;;;;;;;;;5094556;28;20024;-82
2022/07/08 09:34:49;;;;;;;4.05;3.65;;;;;;;;;;5094298;28;19912;-79
2022/07/08 09:37:15;;;;;;;7.65;5.30;;;;;;;;;;5094150;28;20027;-80
2022/07/08 09:39:42;;;;;;;5.78;3.95;;;;;;;;;;5094099;28;20023;-79
2022/07/08 09:42:09;;;;;;;5.18;4.32;;;;;;;;;;5093724;28;20162;-80
2022/07/08 09:44:35;;;;;;;6.05;3.50;;;;;;;;;;5093869;28;20077;-79
2022/07/08 09:47:08;;;;;;;4.47;3.80;;;;;;;;;;5093719;28;20024;-75
2022/07/08 09:49:34;;;;;;;7.43;5.28;;;;;;;;;;5075782;28;20102;-80
2022/07/08 09:52:00;;;;;;;6.35;3.75;;;;;;;;;;5093828;28;20035;-80
2022/07/08 09:54:28;;;;;;;4.20;3.80;;;;;;;;;;5093736;28;20016;-80
2022/07/08 09:57:01;;;;;;;4.43;3.58;;;;;;;;;;5093484;28;20060;-78
2022/07/08 09:59:28;;;;;;;4.85;3.58;;;;;;;;;;5093712;28;20032;-80
2022/07/08 10:01:54;;;;;;;6.32;4.13;;;;;;;;;;5093659;28;20473;-80
2022/07/08 10:04:23;;;;;;;3.97;3.30;;;;;;;;;;5092915;28;20032;-79
2022/07/08 10:06:50;;;;;;;9.27;3.78;;;;;;;;;;5093680;28;20420;-81
2022/07/08 10:09:16;;;;;;;7.22;3.58;;;;;;;;;;5093483;28;20056;-79
2022/07/08 10:11:43;;;;;;;5.35;3.80;;;;;;;;;;5093330;28;20060;-80
2022/07/08 10:14:09;;;;;;;5.30;3.47;;;;;;;;;;5093558;28;20056;-80
2022/07/08 10:16:35;;;;;;;4.65;3.92;;;;;;;;;;5093351;28;20543;-80
2022/07/08 10:19:03;;;;;;;6.55;3.75;;;;;;;;;;5093481;28;20031;-80
2022/07/08 10:21:29;;;;;;;4.53;3.53;;;;;;;;;;5093364;28;20103;-80
2022/07/08 10:23:55;;;;;;;6.65;3.90;;;;;;;;;;5093319;28;20103;-80
2022/07/08 10:26:23;;;;;;;6.20;3.60;;;;;;;;;;5093164;28;20385;-76
2022/07/08 10:29:00;;;;;;;6.70;5.28;;;;;;;;;;5093480;28;20016;-82
2022/07/08 10:31:29;;;;;;;5.80;4.03;;;;;;;;;;5093598;28;20051;-82
2022/07/08 10:34:01;;;;;;;5.75;3.67;;;;;;;;;;5093292;28;20439;-82
2022/07/08 10:36:27;;;;;;;11.00;4.72;;;;;;;;;;5093220;28;20031;-82
2022/07/08 10:38:55;;;;;;;6.03;4.30;;;;;;;;;;5093157;28;20020;-82
2022/07/08 10:41:26;;;;;;;7.68;4.20;;;;;;;;;;5092964;28;20024;-81
2022/07/08 10:44:00;;;;;;;6.25;3.50;;;;;;;;;;5075093;28;20028;-80
2022/07/08 10:46:27;;;;;;;4.32;3.50;;;;;;;;;;5093186;28;20099;-82
2022/07/08 10:48:54;;;;;;;7.68;3.85;;;;;;;;;;5093052;28;20487;-74
2022/07/08 10:51:20;;;;;;;5.60;3.28;;;;;;;;;;5092923;28;20046;-76
2022/07/08 10:53:47;;;;;;;3.40;3.00;;;;;;;;;;5093155;28;20069;-79
2022/07/08 10:56:33;;;;;;;7.60;3.90;;;;;;;;;;5092942;28;20077;-81
2022/07/08 10:59:18;;;;;;;3.85;3.42;;;;;;;;;;5092990;28;20024;-77
2022/07/08 11:01:54;;;;;;;5.38;3.70;;;;;;;;;;5092951;28;20020;-82
2022/07/08 11:04:29;;;;;;;7.20;3.78;;;;;;;;;;5093181;28;20028;-82
2022/07/08 11:06:56;;;;;;;4.47;3.30;;;;;;;;;;5093121;28;20020;-82
2022/07/08 11:09:25;;;;;;;4.90;3.85;;;;;;;;;;5093149;28;20024;-82
2022/07/08 11:11:51;;;;;;;5.13;4.18;;;;;;;;;;5092653;28;20546;-82
2022/07/08 11:14:17;;;;;;;8.93;4.30;;;;;;;;;;5074216;28;20052;-76
2022/07/08 11:16:45;;;;;;;7.10;4.80;;;;;;;;;;5093924;28;20146;-82
2022/07/08 11:19:11;;;;;;;8.68;5.30;;;;;;;;;;5078860;28;20089;-80
2022/07/08 11:21:37;;;;;;;5.03;4.22;;;;;;;;;;5096663;28;20016;-81
2022/07/08 11:24:03;;;;;;;5.03;3.70;;;;;;;;;;5096903;28;20409;-82
2022/07/08 11:26:29;;;;;;;9.70;3.58;;;;;;;;;;5096698;28;20016;-83
2022/07/08 11:28:55;;;;;;;9.02;3.88;;;;;;;;;;5096773;28;20024;-83
2022/07/08 11:31:26;;;;;;;4.28;3.63;;;;;;;;;;5078262;28;20382;-82
2022/07/08 11:33:52;;;;;;;4.10;2.87;;;;;;;;;;5096682;28;20089;-75
2022/07/08 11:36:19;;;;;;;6.45;4.45;;;;;;;;;;5096596;28;20363;-82
2022/07/08 11:38:46;;;;;;;7.95;4.40;;;;;;;;;;5096579;28;20123;-78
2022/07/08 11:41:12;;;;;;;5.60;3.70;;;;;;;;;;5096244;28;20420;-80
2022/07/08 11:43:38;;;;;;;6.05;4.22;;;;;;;;;;5096417;28;20127;-82
2022/07/08 11:46:14;;;;;;;3.90;3.08;;;;;;;;;;5096228;28;20019;-81
2022/07/08 11:48:40;;;;;;;8.15;3.80;;;;;;;;;;5096489;28;20024;-82
2022/07/08 11:51:06;;;;;;;6.38;4.07;;;;;;;;;;5096253;28;20024;-83
2022/07/08 11:53:32;;;;;;;8.32;3.17;;;;;;;;;;5096186;28;20024;-83
2022/07/08 11:55:59;;;;;;;4.38;2.90;;;;;;;;;;5077741;28;20435;-78
2022/07/08 11:58:25;;;;;;;6.85;3.00;;;;;;;;;;5096068;28;20084;-83
2022/07/08 12:00:51;;;;;;;4.80;3.22;;;;;;;;;;5096122;28;20465;-82
2022/07/08 12:03:18;;;;;;;3.90;3.08;;;;;;;;;;5096054;28;20032;-77
2022/07/08 12:05:49;;;;;;;3.45;2.70;;;;;;;;;;5095689;28;20035;-78
2022/07/08 12:08:18;;;;;;;5.68;3.58;;;;;;;;;;5095899;28;20030;-80
2022/07/08 12:10:44;;;;;;;15.77;14.18;;;;;;;;;;5095937;28;20020;-83
2022/07/08 12:13:10;;;;;;;5.32;3.70;;;;;;;;;;5095506;28;20044;-83
2022/07/08 12:15:37;;;;;;;4.97;3.17;;;;;;;;;;5095993;28;20024;-82
2022/07/08 12:18:05;;;;;;;5.10;2.90;;;;;;;;;;5095800;28;20099;-81
2022/07/08 12:20:41;;;;;;;4.60;3.17;;;;;;;;;;5096198;28;20028;-79
2022/07/08 12:23:08;;;;;;;4.72;3.03;;;;;;;;;;5095720;28;20020;-80
2022/07/08 12:25:47;;;;;;;5.10;2.78;;;;;;;;;;5077292;28;20020;-81
2022/07/08 12:28:13;;;;;;;3.97;3.35;;;;;;;;;;5094938;28;20099;-77
2022/07/08 12:30:40;;;;;;;4.35;3.17;;;;;;;;;;5095391;28;20024;-81
2022/07/08 12:33:06;;;;;;;3.20;2.90;;;;;;;;;;5095364;28;20036;-81
2022/07/08 12:35:36;;;;;;;3.92;3.05;;;;;;;;;;5095518;28;20019;-77
2022/07/08 12:38:03;;;;;;;4.65;3.50;;;;;;;;;;5095431;28;20489;-81
2022/07/08 12:40:36;;;;;;;6.07;4.20;;;;;;;;;;5095211;28;20050;-75
2022/07/08 12:43:03;;;;;;;4.70;3.67;;;;;;;;;;5095405;28;20039;-77
2022/07/08 12:45:29;;;;;;;3.42;2.95;;;;;;;;;;5095203;28;20530;-82
2022/07/08 12:47:56;;;;;;;4.20;2.78;;;;;;;;;;5094988;28;20028;-79
2022/07/08 12:50:22;;;;;;;5.20;3.50;;;;;;;;;;5095042;28;20400;-76
2022/07/08 12:52:48;;;;;;;3.88;2.95;;;;;;;;;;5094976;28;20036;-82
2022/07/08 12:55:14;;;;;;;6.97;3.95;;;;;;;;;;5094864;28;20027;-78
2022/07/08 12:57:41;;;;;;;3.72;3.17;;;;;;;;;;5094856;28;20024;-79
2022/07/08 13:00:07;;;;;;;3.85;2.88;;;;;;;;;;5095066;28;20030;-75
2022/07/08 13:02:33;;;;;;;7.28;3.47;;;;;;;;;;5076983;28;20021;-79
2022/07/08 13:04:59;;;;;;;7.05;4.15;;;;;;;;;;5094800;28;20503;-77
2022/07/08 13:07:25;;;;;;;5.43;4.07;;;;;;;;;;5094694;28;20421;-74
2022/07/08 13:09:51;;;;;;;7.07;4.43;;;;;;;;;;5094484;28;20473;-75
2022/07/08 13:12:18;;;;;;;4.78;3.70;;;;;;;;;;5094088;28;20035;-78
2022/07/08 13:14:44;;;;;;;4.00;3.60;;;;;;;;;;5094639;28;20028;-79
2022/07/08 13:17:10;;;;;;;3.97;2.95;;;;;;;;;;5094646;28;20023;-83
2022/07/08 13:19:36;;;;;;;4.72;3.70;;;;;;;;;;5094479;28;20020;-83
2022/07/08 13:22:03;;;;;;;3.42;3.13;;;;;;;;;;5094656;28;20428;-82
2022/07/08 13:24:29;;;;;;;7.72;4.53;;;;;;;;;;5094416;28;20019;-81
2022/07/08 13:26:55;;;;;;;4.10;3.33;;;;;;;;;;5094229;28;20024;-81
2022/07/08 13:29:21;;;;;;;4.82;3.78;;;;;;;;;;5094343;28;20036;-81
2022/07/08 13:31:47;;;;;;;5.18;3.53;;;;;;;;;;5094082;28;20102;-82
2022/07/08 13:34:19;;;;;;;6.47;3.53;;;;;;;;;;5094385;28;20474;-82
2022/07/08 13:36:46;;;;;;;3.50;3.20;;;;;;;;;;5093843;28;20512;-81
2022/07/08 13:39:12;;;;;;;6.95;3.53;;;;;;;;;;5093196;28;20073;-74
2022/07/08 13:41:39;;;;;;;4.00;2.75;;;;;;;;;;5094167;28;20068;-77
2022/07/08 13:44:05;;;;;;;4.32;3.15;;;;;;;;;;5093937;28;20077;-74
2022/07/08 13:46:31;;;;;;;5.35;3.30;;;;;;;;;;5093992;28;20024;-80
2022/07/08 13:49:00;;;;;;;4.50;2.95;;;;;;;;;;5075732;28;20115;-80
2022/07/08 13:51:26;;;;;;;4.40;3.28;;;;;;;;;;5093797;28;20093;-77
2022/07/08 13:53:53;;;;;;;5.80;3.30;;;;;;;;;;5093895;28;20043;-74
2022/07/08 13:56:19;;;;;;;12.00;2.83;;;;;;;;;;5093874;28;20012;-83
2022/07/08 13:58:45;;;;;;;5.20;3.35;;;;;;;;;;5094052;28;20020;-83
2022/07/08 14:01:11;;;;;;;6.03;3.05;;;;;;;;;;5094035;28;20032;-79
2022/07/08 14:03:37;;;;;;;8.18;3.55;;;;;;;;;;5093712;28;20098;-83
2022/07/08 14:06:04;;;;;;;3.92;2.65;;;;;;;;;;5093884;28;20024;-82
2022/07/08 14:08:30;;;;;;;3.95;3.42;;;;;;;;;;5093899;28;20099;-82
2022/07/08 14:10:56;;;;;;;4.28;3.28;;;;;;;;;;5093637;28;20043;-82
2022/07/08 14:13:22;;;;;;;5.00;2.80;;;;;;;;;;5093189;28;20044;-82
2022/07/08 14:15:48;;;;;;;3.30;3.00;;;;;;;;;;5093655;28;20063;-82
2022/07/08 14:18:14;;;;;;;5.75;3.20;;;;;;;;;;5093405;28;20406;-82
2022/07/08 14:20:40;;;;;;;4.57;3.17;;;;;;;;;;5093488;28;20027;-78
2022/07/08 14:23:06;;;;;;;5.45;3.22;;;;;;;;;;5093602;28;20055;-79
2022/07/08 14:25:32;;;;;;;6.32;3.30;;;;;;;;;;5093413;28;20028;-82
2022/07/08 14:27:58;;;;;;;4.38;2.70;;;;;;;;;;5093330;28;20381;-80
2022/07/08 14:30:24;;;;;;;4.38;2.97;;;;;;;;;;5093362;28;20031;-77
2022/07/08 14:32:50;;;;;;;5.57;4.20;;;;;;;;;;5093329;28;20054;-81
2022/07/08 14:35:17;;;;;;;3.80;3.40;;;;;;;;;;5093362;28;20060;-82
2022/07/08 14:37:43;;;;;;;4.43;3.50;;;;;;;;;;5074974;28;20024;-81
2022/07/08 14:40:10;;;;;;;4.30;3.17;;;;;;;;;;5093307;28;20381;-75
2022/07/08 14:42:36;;;;;;;6.15;2.97;;;;;;;;;;5093386;28;20021;-81
2022/07/08 14:45:02;;;;;;;7.05;3.88;;;;;;;;;;5093373;28;20397;-83
2022/07/08 14:47:28;;;;;;;5.03;3.10;;;;;;;;;;5093304;28;20095;-82